createdAt,value
2022-10-13T00:02:00.666Z,70.95
2022-10-13T00:04:43.431Z,79.95
2022-10-13T00:07:25.622Z,77.40
2022-10-13T00:10:14.402Z,70.93
2022-10-13T00:13:03.690Z,71.55
2022-10-13T00:15:50.418Z,72.53
2022-10-13T00:18:41.702Z,74.05
2022-10-13T00:21:26.403Z,80.40
2022-10-13T00:24:18.712Z,73.55
2022-10-13T00:27:01.402Z,80.65
2022-10-13T00:29:50.682Z,83.47
2022-10-13T00:32:32.419Z,80.80
2022-10-13T00:35:20.700Z,83.50
2022-10-13T00:38:03.443Z,90.90
2022-10-13T00:40:57.726Z,88.53
2022-10-13T00:44:07.476Z,96.85
2022-10-13T00:46:55.724Z,85.90
2022-10-13T00:49:39.488Z,101.35
2022-10-13T00:52:29.707Z,96.97
2022-10-13T00:55:14.469Z,103.90
2022-10-13T00:58:05.535Z,94.05
2022-10-13T01:00:49.466Z,98.88
2022-10-13T01:03:38.686Z,90.60
2022-10-13T01:06:23.833Z,97.35
2022-10-13T01:09:18.280Z,102.22
2022-10-13T01:12:21.761Z,93.43
2022-10-13T01:15:22.923Z,93.45
2022-10-13T01:18:42.455Z,93.35
2022-10-13T01:21:53.310Z,101.60
2022-10-13T01:24:53.408Z,97.35
2022-10-13T01:28:00.315Z,92.97
2022-10-13T01:31:16.447Z,99.43
2022-10-13T01:34:25.688Z,94.53
2022-10-13T01:37:31.403Z,91.35
2022-10-13T01:40:41.327Z,93.75
2022-10-13T01:43:39.715Z,87.07
2022-10-13T01:46:32.686Z,98.47
2022-10-13T01:49:26.398Z,87.22
2022-10-13T01:52:14.232Z,91.80
2022-10-13T01:55:03.416Z,93.88
2022-10-13T01:57:55.405Z,96.10
2022-10-13T02:00:47.613Z,100.78
2022-10-13T02:03:51.406Z,96.05
2022-10-13T02:06:51.713Z,99.30
2022-10-13T02:09:47.417Z,95.88
2022-10-13T02:12:44.670Z,100.57
2022-10-13T02:15:40.404Z,98.45
2022-10-13T02:18:26.671Z,107.88
2022-10-13T02:21:15.751Z,102.07
2022-10-13T02:23:59.680Z,110.72
2022-10-13T02:26:50.378Z,117.43
2022-10-13T02:29:33.843Z,115.95
2022-10-13T02:32:22.579Z,109.10
2022-10-13T02:35:04.653Z,98.22
2022-10-13T02:37:53.469Z,102.63
2022-10-13T02:40:35.693Z,93.65
2022-10-13T02:43:24.408Z,99.78
2022-10-13T02:46:06.685Z,107.95
2022-10-13T02:48:56.405Z,105.22
2022-10-13T02:51:40.313Z,95.68
2022-10-13T02:54:29.485Z,95.90
2022-10-13T02:57:11.677Z,106.35
2022-10-13T03:00:01.480Z,94.90
2022-10-13T03:02:43.679Z,91.47
2022-10-13T03:05:32.375Z,87.03
2022-10-13T03:08:14.743Z,97.15
2022-10-13T03:11:03.461Z,95.43
2022-10-13T03:13:45.680Z,94.18
2022-10-13T03:16:34.462Z,91.57
2022-10-13T03:19:18.695Z,78.65
2022-10-13T03:22:07.388Z,96.10
2022-10-13T03:24:50.685Z,82.18
2022-10-13T03:27:39.470Z,85.50
2022-10-13T03:30:21.696Z,76.80
2022-10-13T03:33:10.410Z,72.30
2022-10-13T03:35:52.677Z,68.38
2022-10-13T03:38:42.449Z,61.67
2022-10-13T03:41:26.692Z,59.95
2022-10-13T03:44:15.446Z,51.80
2022-10-13T03:46:57.754Z,52.95
2022-10-13T03:49:46.392Z,46.55
2022-10-13T03:52:28.684Z,53.22
2022-10-13T03:55:17.405Z,51.92
2022-10-13T03:57:59.796Z,47.08
2022-10-13T04:00:48.405Z,46.17
2022-10-13T04:03:30.661Z,46.70
2022-10-13T04:06:19.481Z,41.25
2022-10-13T04:09:14.253Z,46.05
2022-10-13T04:12:03.421Z,45.13
2022-10-13T04:14:45.688Z,45.22
2022-10-13T04:21:33.474Z,46.88
2022-10-13T04:24:22.839Z,42.70
2022-10-13T04:27:05.386Z,36.92
2022-10-13T04:29:54.391Z,37.45
2022-10-13T04:32:36.699Z,34.40
2022-10-13T04:35:26.395Z,34.67
2022-10-13T04:38:08.674Z,44.70
2022-10-13T04:40:58.394Z,36.58
2022-10-13T04:43:41.669Z,34.35
2022-10-13T04:49:17.671Z,30.20
2022-10-13T04:52:06.456Z,41.50
2022-10-13T04:54:48.673Z,30.55
2022-10-13T04:57:37.403Z,31.60
2022-10-13T05:00:20.677Z,38.35
2022-10-13T05:03:02.381Z,30.98
2022-10-13T05:05:44.706Z,30.35
2022-10-13T05:08:33.460Z,34.05
2022-10-13T05:11:15.793Z,27.88
2022-10-13T05:14:04.463Z,23.98
2022-10-13T05:16:52.748Z,34.47
2022-10-13T05:19:35.616Z,37.53
2022-10-13T05:25:19.412Z,28.65
2022-10-13T05:28:01.693Z,36.92
2022-10-13T05:30:50.411Z,23.60
2022-10-13T05:33:32.735Z,30.38
2022-10-13T05:36:26.449Z,23.23
2022-10-13T05:39:18.763Z,28.90
2022-10-13T05:42:06.869Z,29.55
2022-10-13T05:44:49.389Z,29.25
2022-10-13T05:47:39.458Z,27.02
2022-10-13T05:50:21.763Z,41.45
2022-10-13T05:53:10.383Z,36.42
2022-10-13T05:55:52.916Z,27.92
2022-10-13T05:58:51.501Z,35.55
2022-10-13T06:01:38.787Z,23.80
2022-10-13T06:04:32.445Z,28.02
2022-10-13T06:07:16.680Z,32.40
2022-10-13T06:10:06.461Z,33.70
2022-10-13T06:12:48.680Z,26.65
2022-10-13T06:15:37.717Z,34.40
2022-10-13T06:18:19.690Z,26.20
2022-10-13T06:21:08.392Z,29.13
2022-10-13T06:23:57.449Z,31.10
2022-10-13T06:26:39.572Z,35.75
2022-10-13T06:29:28.445Z,31.52
2022-10-13T06:32:16.689Z,29.35
2022-10-13T06:34:58.460Z,27.30
2022-10-13T06:37:49.616Z,25.13
2022-10-13T06:40:32.649Z,29.70
2022-10-13T06:43:20.696Z,26.95
2022-10-13T06:46:07.409Z,29.20
2022-10-13T06:48:53.849Z,25.33
2022-10-13T06:51:44.411Z,22.60
2022-10-13T06:54:26.714Z,28.15
2022-10-13T06:57:15.408Z,29.38
2022-10-13T07:00:04.453Z,26.42
2022-10-13T07:02:46.704Z,26.15
2022-10-13T07:05:35.389Z,37.30
2022-10-13T07:08:17.704Z,30.02
2022-10-13T07:11:06.444Z,25.83
2022-10-13T07:13:49.821Z,40.17
2022-10-13T07:16:38.462Z,50.05
2022-10-13T07:19:20.721Z,28.30
2022-10-13T07:22:15.436Z,25.25
2022-10-13T07:25:03.660Z,26.52
2022-10-13T07:27:48.377Z,23.05
2022-10-13T07:30:37.325Z,25.25
2022-10-13T07:33:26.284Z,24.55
2022-10-13T07:36:15.296Z,21.42
2022-10-13T07:39:06.377Z,21.98
2022-10-13T07:41:51.036Z,27.00
2022-10-13T07:44:41.765Z,25.90
2022-10-13T07:47:31.714Z,24.02
2022-10-13T07:50:14.425Z,25.65
2022-10-13T07:53:03.348Z,21.30
2022-10-13T07:55:45.381Z,25.10
2022-10-13T07:58:33.635Z,26.50
2022-10-13T08:01:16.511Z,26.83
2022-10-13T08:04:04.749Z,44.88
2022-10-13T08:06:47.465Z,24.13
2022-10-13T08:09:29.698Z,22.35
2022-10-13T08:12:20.556Z,19.35
2022-10-13T08:15:08.720Z,22.67
2022-10-13T08:17:50.376Z,21.83
2022-10-13T08:20:41.114Z,24.05
2022-10-13T08:23:33.388Z,20.45
2022-10-13T08:26:23.436Z,17.52
2022-10-13T08:29:27.502Z,25.08
2022-10-13T08:32:15.684Z,22.90
2022-10-13T08:34:58.401Z,22.48
2022-10-13T08:37:40.578Z,22.70
2022-10-13T08:40:34.686Z,27.58
2022-10-13T08:43:22.548Z,23.08
2022-10-13T08:46:15.718Z,22.77
2022-10-13T08:49:06.848Z,18.67
2022-10-13T08:51:49.452Z,25.27
2022-10-13T08:54:37.683Z,24.15
2022-10-13T08:57:20.591Z,21.02
2022-10-13T09:00:02.611Z,28.52
2022-10-13T09:02:56.528Z,23.38
2022-10-13T09:05:53.683Z,29.80
2022-10-13T09:08:41.449Z,43.50
2022-10-13T09:11:29.707Z,16.17
2022-10-13T09:14:15.385Z,25.60
2022-10-13T09:17:19.890Z,22.17
2022-10-13T09:20:13.415Z,18.17
2022-10-13T09:23:28.370Z,16.85
2022-10-13T09:26:26.690Z,25.90
2022-10-13T09:29:17.501Z,19.83
2022-10-13T09:32:30.682Z,19.23
2022-10-13T09:35:30.388Z,21.52
2022-10-13T09:38:19.203Z,28.42
2022-10-13T09:41:35.487Z,19.05
2022-10-13T09:44:30.074Z,23.33
2022-10-13T09:47:19.395Z,17.20
2022-10-13T09:50:13.693Z,20.00
2022-10-13T09:52:57.386Z,20.58
2022-10-13T09:55:46.399Z,28.17
2022-10-13T09:58:37.709Z,17.90
2022-10-13T10:01:32.390Z,19.20
2022-10-13T10:04:22.700Z,19.58
2022-10-13T10:07:20.628Z,21.70
2022-10-13T10:10:11.087Z,19.02
2022-10-13T10:13:00.373Z,22.45
2022-10-13T10:15:50.678Z,20.92
2022-10-13T10:19:27.377Z,19.92
2022-10-13T10:22:16.673Z,23.42
2022-10-13T10:25:33.460Z,21.05
2022-10-13T10:28:45.766Z,16.65
2022-10-13T10:31:46.396Z,21.10
2022-10-13T10:34:37.680Z,26.02
2022-10-13T10:37:54.403Z,26.00
2022-10-13T10:40:37.077Z,20.65
2022-10-13T10:43:34.462Z,24.85
2022-10-13T10:46:27.676Z,20.00
2022-10-13T10:49:32.423Z,23.88
2022-10-13T10:52:18.672Z,21.17
2022-10-13T10:55:34.451Z,22.95
2022-10-13T10:59:15.649Z,21.85
2022-10-13T11:02:16.443Z,27.02
2022-10-13T11:05:06.078Z,22.55
2022-10-13T11:07:55.408Z,27.77
2022-10-13T11:10:37.676Z,26.40
2022-10-13T11:13:28.528Z,24.33
2022-10-13T11:16:51.846Z,26.98
2022-10-13T11:19:48.393Z,19.00
2022-10-13T11:22:45.233Z,32.28
2022-10-13T11:25:47.391Z,19.50
2022-10-13T11:28:29.680Z,29.23
2022-10-13T11:31:21.376Z,34.15
2022-10-13T11:34:08.675Z,31.45
2022-10-13T11:37:03.387Z,26.40
2022-10-13T11:40:08.789Z,30.40
2022-10-13T11:43:16.425Z,21.25
2022-10-13T11:46:10.060Z,19.92
2022-10-13T11:49:39.408Z,29.77
2022-10-13T11:52:47.666Z,23.75
2022-10-13T11:56:02.376Z,23.77
2022-10-13T11:58:57.371Z,22.67
2022-10-13T12:01:46.048Z,23.45
2022-10-13T12:04:37.400Z,29.67
2022-10-13T12:07:30.681Z,32.97
2022-10-13T12:10:16.895Z,24.33
2022-10-13T12:13:05.854Z,24.58
2022-10-13T12:15:52.427Z,28.25
2022-10-13T12:18:42.647Z,25.92
2022-10-13T12:21:29.383Z,28.23
2022-10-13T12:24:27.365Z,27.30
2022-10-13T12:27:28.396Z,29.50
2022-10-13T12:30:12.661Z,30.15
2022-10-13T12:33:04.562Z,23.05
2022-10-13T12:35:46.707Z,25.45
2022-10-13T12:38:35.366Z,25.48
2022-10-13T12:41:26.271Z,25.48
2022-10-13T12:44:22.266Z,27.75
2022-10-13T12:47:18.515Z,32.05
2022-10-13T12:50:37.423Z,32.03
2022-10-13T12:53:23.007Z,32.88
2022-10-13T12:56:13.407Z,30.10
2022-10-13T12:59:02.410Z,26.73
2022-10-13T13:01:51.692Z,23.88
2022-10-13T13:04:47.396Z,30.48
2022-10-13T13:07:38.093Z,31.95
2022-10-13T13:10:36.697Z,30.95
2022-10-13T13:13:23.675Z,26.02
2022-10-13T13:16:23.420Z,24.90
2022-10-13T13:19:05.831Z,42.03
2022-10-13T13:21:54.449Z,30.45
2022-10-13T13:24:50.292Z,40.00
2022-10-13T13:27:47.371Z,35.03
2022-10-13T13:30:31.671Z,31.52
2022-10-13T13:33:20.440Z,49.00
2022-10-13T13:36:06.649Z,38.00
2022-10-13T13:38:59.458Z,31.08
2022-10-13T13:41:41.825Z,44.53
2022-10-13T13:44:31.388Z,52.33
2022-10-13T13:47:27.725Z,37.85
2022-10-13T13:50:31.371Z,43.92
2022-10-13T13:53:21.383Z,39.35
2022-10-13T13:56:10.755Z,38.55
2022-10-13T13:58:53.461Z,43.42
2022-10-13T14:01:35.611Z,47.23
2022-10-13T14:04:24.532Z,47.53
2022-10-13T14:07:12.692Z,53.17
2022-10-13T14:09:59.277Z,41.13
2022-10-13T14:12:50.676Z,46.55
2022-10-13T14:15:33.680Z,42.75
2022-10-13T14:18:21.652Z,37.65
2022-10-13T14:21:04.441Z,41.47
2022-10-13T14:23:59.308Z,48.55
2022-10-13T14:26:48.376Z,43.75
2022-10-13T14:29:32.698Z,34.83
2022-10-13T14:32:21.679Z,41.42
2022-10-13T14:35:10.360Z,49.92
2022-10-13T14:37:52.569Z,58.03
2022-10-13T14:40:41.377Z,44.08
2022-10-13T14:43:23.585Z,39.22
2022-10-13T14:46:17.391Z,40.03
2022-10-13T14:49:06.644Z,47.25
2022-10-13T14:51:51.378Z,49.33
2022-10-13T14:54:44.636Z,51.92
2022-10-13T14:57:28.394Z,54.65
2022-10-13T15:00:17.645Z,54.15
2022-10-13T15:02:59.447Z,46.17
2022-10-13T15:05:47.666Z,55.38
2022-10-13T15:08:32.381Z,45.72
2022-10-13T15:11:22.404Z,50.20
2022-10-13T15:14:04.887Z,43.95
2022-10-13T15:16:53.772Z,56.00
2022-10-13T15:19:36.652Z,44.42
2022-10-13T15:25:14.656Z,55.00
2022-10-13T15:27:56.382Z,49.03
2022-10-13T15:30:45.386Z,51.88
2022-10-13T15:33:37.398Z,53.45
2022-10-13T15:36:26.749Z,45.70
2022-10-13T15:39:09.443Z,44.30
2022-10-13T15:41:57.685Z,42.63
2022-10-13T15:45:08.174Z,48.33
2022-10-13T15:47:49.691Z,52.08
2022-10-13T15:50:33.457Z,56.63
2022-10-13T15:53:21.653Z,55.38
2022-10-13T15:56:03.424Z,49.10
2022-10-13T15:58:51.736Z,50.83
2022-10-13T16:01:33.396Z,49.75
2022-10-13T16:04:21.664Z,54.75
2022-10-13T16:07:04.380Z,53.22
2022-10-13T16:09:53.367Z,51.72
2022-10-13T16:12:38.742Z,66.03
2022-10-13T16:15:27.387Z,64.68
2022-10-13T16:18:16.374Z,60.65
2022-10-13T16:21:05.688Z,67.93
2022-10-13T16:24:01.379Z,65.85
2022-10-13T16:26:49.638Z,73.35
2022-10-13T16:29:32.373Z,104.75
2022-10-13T16:32:22.045Z,140.60
2022-10-13T16:35:06.377Z,187.68
2022-10-13T16:37:55.917Z,171.60
2022-10-13T16:40:38.379Z,147.20
2022-10-13T16:43:27.787Z,144.93
2022-10-13T16:46:12.383Z,146.32
2022-10-13T16:49:00.769Z,128.50
2022-10-13T16:51:43.355Z,144.15
2022-10-13T16:54:27.129Z,126.07
2022-10-13T16:57:17.424Z,105.55
2022-10-13T17:00:05.735Z,106.47
2022-10-13T17:02:47.353Z,119.68
2022-10-13T17:05:29.556Z,115.40
2022-10-13T17:08:18.480Z,106.65
2022-10-13T17:11:04.224Z,104.00
2022-10-13T17:13:53.379Z,97.93
2022-10-13T17:16:38.632Z,93.18
2022-10-13T17:19:27.387Z,101.57
2022-10-13T17:22:09.556Z,92.93
2022-10-13T17:24:58.336Z,87.82
2022-10-13T17:27:40.697Z,66.82
2022-10-13T17:30:29.372Z,71.45
2022-10-13T17:33:18.636Z,75.10
2022-10-13T17:36:01.770Z,84.43
2022-10-13T17:38:44.206Z,75.70
2022-10-13T17:41:33.365Z,82.13
2022-10-13T17:44:21.744Z,73.15
2022-10-13T17:47:03.383Z,69.72
2022-10-13T17:49:52.367Z,85.78
2022-10-13T17:52:35.669Z,71.82
2022-10-13T17:55:24.377Z,77.78
2022-10-13T17:58:13.366Z,81.90
2022-10-13T18:01:19.447Z,77.97
2022-10-13T18:04:04.339Z,73.28
2022-10-13T18:06:47.244Z,75.85
2022-10-13T18:09:37.371Z,66.90
2022-10-13T18:12:26.392Z,67.85
2022-10-13T18:15:08.825Z,65.68
2022-10-13T18:17:58.379Z,71.05
2022-10-13T18:20:50.369Z,76.28
2022-10-13T18:23:47.205Z,83.32
2022-10-13T18:26:39.372Z,80.15
2022-10-13T18:29:21.691Z,73.40
2022-10-13T18:32:11.353Z,75.90
2022-10-13T18:35:00.343Z,88.63
2022-10-13T18:37:51.370Z,74.85
2022-10-13T18:40:36.339Z,83.15
2022-10-13T18:43:18.689Z,85.80
2022-10-13T18:46:07.358Z,80.35
2022-10-13T18:48:49.591Z,79.15
2022-10-13T18:51:41.367Z,80.40
2022-10-13T18:54:23.780Z,84.43
2022-10-13T18:57:12.354Z,74.60
2022-10-13T18:59:55.518Z,82.78
2022-10-13T19:02:44.411Z,79.78
2022-10-13T19:05:26.708Z,83.05
2022-10-13T19:08:17.337Z,76.90
2022-10-13T19:10:59.959Z,77.07
2022-10-13T19:13:48.333Z,77.25
2022-10-13T19:16:38.657Z,75.30
2022-10-13T19:19:21.332Z,82.47
2022-10-13T19:22:05.847Z,89.97
2022-10-13T19:24:54.347Z,87.03
2022-10-13T19:27:36.559Z,90.53
2022-10-13T19:30:26.414Z,72.20
2022-10-13T19:33:16.648Z,76.95
2022-10-13T19:35:59.369Z,84.95
2022-10-13T19:38:47.982Z,78.47
2022-10-13T19:41:31.335Z,71.55
2022-10-13T19:44:13.965Z,74.82
2022-10-13T19:47:03.355Z,70.45
2022-10-13T19:49:52.350Z,77.63
2022-10-13T19:52:41.410Z,68.55
2022-10-13T19:55:29.722Z,72.82
2022-10-13T19:58:11.414Z,70.70
2022-10-13T20:01:00.738Z,77.78
2022-10-13T20:03:42.360Z,76.40
2022-10-13T20:06:31.831Z,72.53
2022-10-13T20:09:14.394Z,72.45
2022-10-13T20:12:10.341Z,68.95
2022-10-13T20:15:00.628Z,74.90
2022-10-13T20:17:43.373Z,74.90
2022-10-13T20:20:32.798Z,77.05
2022-10-13T20:23:15.341Z,76.72
2022-10-13T20:26:10.199Z,68.93
2022-10-13T20:29:02.907Z,75.25
2022-10-13T20:31:44.609Z,72.97
2022-10-13T20:34:33.401Z,80.50
2022-10-13T20:37:15.738Z,71.65
2022-10-13T20:40:05.466Z,79.68
2022-10-13T20:42:47.692Z,75.70
2022-10-13T20:45:36.433Z,82.43
2022-10-13T20:48:18.684Z,77.75
2022-10-13T20:51:14.449Z,73.05
2022-10-13T20:53:57.708Z,76.93
2022-10-13T20:56:46.438Z,95.40
2022-10-13T20:59:28.660Z,88.82
2022-10-13T21:02:21.359Z,81.10
2022-10-13T21:05:10.250Z,91.10
2022-10-13T21:07:59.345Z,84.85
2022-10-13T21:10:50.257Z,88.03
2022-10-13T21:13:39.365Z,85.10
2022-10-13T21:16:32.658Z,89.57
2022-10-13T21:19:23.345Z,87.57
2022-10-13T21:22:05.610Z,81.68
2022-10-13T21:25:00.347Z,89.15
2022-10-13T21:27:42.523Z,78.03
2022-10-13T21:30:32.689Z,68.40
2022-10-13T21:33:20.664Z,68.18
2022-10-13T21:36:02.413Z,65.90
2022-10-13T21:38:46.058Z,67.65
2022-10-13T21:41:36.402Z,76.95
2022-10-13T21:44:25.347Z,78.82
2022-10-13T21:47:07.704Z,83.00
2022-10-13T21:49:57.332Z,65.18
2022-10-13T21:52:43.619Z,68.28
2022-10-13T21:55:32.331Z,68.20
2022-10-13T21:58:21.262Z,66.57
2022-10-13T22:01:12.344Z,81.35
2022-10-13T22:04:04.242Z,73.00
2022-10-13T22:06:53.416Z,67.57
2022-10-13T22:09:35.609Z,69.75
2022-10-13T22:12:24.400Z,61.53
2022-10-13T22:15:06.635Z,62.60
2022-10-13T22:17:55.363Z,66.60
2022-10-13T22:20:42.654Z,67.00
2022-10-13T22:23:31.330Z,66.57
2022-10-13T22:26:21.640Z,62.45
2022-10-13T22:29:06.466Z,69.93
2022-10-13T22:31:55.643Z,67.43
2022-10-13T22:34:37.631Z,65.38
2022-10-13T22:37:25.768Z,64.35
2022-10-13T22:40:07.327Z,66.10
2022-10-13T22:42:50.509Z,63.50
2022-10-13T22:45:39.365Z,69.72
2022-10-13T22:48:28.324Z,74.78
2022-10-13T22:51:19.362Z,67.88
2022-10-13T22:54:09.412Z,68.97
2022-10-13T22:56:51.642Z,66.43
2022-10-13T22:59:40.324Z,63.05
2022-10-13T23:02:22.663Z,67.50
2022-10-13T23:05:11.331Z,67.10
2022-10-13T23:07:53.636Z,61.08
2022-10-13T23:10:45.413Z,66.00
2022-10-13T23:13:27.661Z,61.25
2022-10-13T23:16:20.376Z,65.35
2022-10-13T23:19:02.682Z,55.10
2022-10-13T23:21:51.412Z,58.92
2022-10-13T23:24:46.209Z,63.63
2022-10-13T23:27:36.336Z,56.88
2022-10-13T23:30:19.664Z,59.00
2022-10-13T23:33:08.401Z,66.20
2022-10-13T23:35:50.618Z,63.65
2022-10-13T23:38:41.324Z,61.33
2022-10-13T23:41:24.642Z,64.10
2022-10-13T23:44:13.397Z,52.97
2022-10-13T23:46:55.615Z,58.80
2022-10-13T23:49:44.411Z,53.42
2022-10-13T23:52:27.638Z,60.25
2022-10-13T23:55:17.397Z,62.08
2022-10-13T23:57:59.866Z,51.10
